Time;durP1;ratioP1;P1;durP2;ratioP2;P2;SDS_P1;SDS_P2;PMS_P1;PMS_P2;Temp;Humidity;BMP_temperature;BMP_pressure;BME280_temperature;BME280_humidity;BME280_pressure;Samples;Min_cycle;Max_cycle;Signal;HPM_P1;HPM_P2
2021/06/29 00:00:30;;;;;;;;;1.00;1.00;;;;;21.26;51.68;100267.84;5050554;28;59492;-76
2021/06/29 00:03:03;;;;;;;;;1.25;1.25;;;;;21.24;51.65;100259.13;5034214;28;45335;-76
2021/06/29 00:05:29;;;;;;;;;2.25;2.25;;;;;21.22;51.60;100255.69;5034486;28;45681;-75
2021/06/29 00:07:55;;;;;;;;;2.00;2.00;;;;;21.19;51.57;100263.91;5035202;28;45573;-75
2021/06/29 00:10:22;;;;;;;;;1.00;1.00;;;;;21.17;51.43;100257.88;5018512;28;45471;-75
2021/06/29 00:12:47;;;;;;;;;1.25;1.25;;;;;21.16;52.02;100258.81;5036307;28;45561;-74
2021/06/29 00:15:13;;;;;;;;;3.75;2.00;;;;;21.14;51.94;100258.09;5050936;28;60575;-75
2021/06/29 00:17:39;;;;;;;;;3.00;3.00;;;;;21.13;51.91;100261.72;5045662;28;45423;-76
2021/06/29 00:20:05;;;;;;;;;2.50;2.50;;;;;21.10;51.99;100256.63;5071255;28;45535;-76
2021/06/29 00:22:30;;;;;;;;;3.50;2.00;;;;;21.08;51.87;100255.91;5053690;28;45324;-76
2021/06/29 00:24:56;;;;;;;;;1.50;1.50;;;;;21.07;51.98;100262.16;5051396;28;45703;-76
2021/06/29 00:27:21;;;;;;;;;1.25;1.25;;;;;21.04;52.04;100256.13;5070437;28;45410;-75
2021/06/29 00:29:46;;;;;;;;;1.25;1.25;;;;;21.04;52.23;100258.78;5069755;28;62573;-76
2021/06/29 00:32:12;;;;;;;;;2.00;2.00;;;;;21.02;52.30;100251.88;5070590;28;48077;-76
2021/06/29 00:34:37;;;;;;;;;3.00;2.25;;;;;21.00;52.51;100251.13;5051703;28;45407;-76
2021/06/29 00:37:03;;;;;;;;;3.00;2.00;;;;;20.99;52.33;100252.94;5060081;28;45380;-76
2021/06/29 00:39:29;;;;;;;;;3.00;2.00;;;;;20.98;52.25;100243.28;5023108;28;45467;-76
2021/06/29 00:41:54;;;;;;;;;3.75;1.75;;;;;20.96;52.20;100245.19;5033931;28;45622;-76
2021/06/29 00:44:23;;;;;;;;;1.75;1.75;;;;;20.95;52.62;100240.84;5019028;28;46429;-75
2021/06/29 00:46:49;;;;;;;;;4.00;2.75;;;;;20.94;52.37;100244.47;5011739;28;45773;-75
2021/06/29 00:49:15;;;;;;;;;2.00;2.00;;;;;20.94;52.62;100246.28;5056548;28;45464;-75
2021/06/29 00:51:40;;;;;;;;;2.75;2.75;;;;;20.92;52.45;100232.28;5040523;28;45501;-76
2021/06/29 00:54:05;;;;;;;;;4.00;2.50;;;;;20.91;52.77;100236.72;5037198;28;45388;-75
2021/06/29 00:56:32;;;;;;;;;3.00;2.00;;;;;20.90;52.70;100236.84;5058112;28;45850;-75
2021/06/29 00:58:57;;;;;;;;;2.25;2.25;;;;;20.90;52.59;100232.38;5045167;28;45481;-76
2021/06/29 01:01:22;;;;;;;;;3.25;2.75;;;;;20.88;52.58;100231.66;5019223;28;45435;-75
2021/06/29 01:03:48;;;;;;;;;2.25;2.25;;;;;20.89;52.27;100232.50;5035105;28;45950;-75
2021/06/29 01:06:14;;;;;;;;;1.50;1.50;;;;;20.87;52.73;100234.41;5034728;28;45437;-75
2021/06/29 01:08:39;;;;;;;;;2.25;2.25;;;;;20.86;52.57;100230.91;5035563;28;45367;-76
2021/06/29 01:11:05;;;;;;;;;3.75;3.00;;;;;20.85;52.59;100226.56;5045634;28;45539;-74
2021/06/29 01:13:31;;;;;;;;;2.00;2.00;;;;;20.84;53.08;100211.59;5018067;28;59596;-75
2021/06/29 01:15:58;;;;;;;;;1.75;1.75;;;;;20.83;52.81;100215.22;5035568;28;45732;-75
2021/06/29 01:18:23;;;;;;;;;3.50;2.00;;;;;20.82;52.89;100218.84;5019109;28;45764;-75
2021/06/29 01:20:49;;;;;;;;;2.50;2.50;;;;;20.82;52.69;100210.88;5035803;28;45622;-76
2021/06/29 01:23:17;;;;;;;;;2.50;2.50;;;;;20.79;52.81;100219.03;5057137;28;46009;-76
2021/06/29 01:25:44;;;;;;;;;1.25;1.25;;;;;20.80;53.12;100218.06;5027376;28;45626;-75
2021/06/29 01:28:31;;;;;;;;;3.00;1.00;;;;;20.76;52.83;100200.69;5038851;28;45463;-74
2021/06/29 01:31:02;;;;;;;;;2.50;2.50;;;;;20.78;52.91;100198.75;5055862;28;45819;-75
2021/06/29 01:33:27;;;;;;;;;3.00;2.75;;;;;20.74;53.07;100203.44;5039272;28;47576;-75
2021/06/29 01:35:53;;;;;;;;;2.00;2.00;;;;;20.75;53.01;100209.59;5055699;28;52727;-75
2021/06/29 01:38:22;;;;;;;;;3.25;2.00;;;;;20.74;52.91;100205.25;5040281;28;45716;-75
2021/06/29 01:40:48;;;;;;;;;2.25;2.25;;;;;20.74;52.67;100207.91;5037594;28;45688;-75
2021/06/29 01:43:14;;;;;;;;;3.25;3.25;;;;;20.73;52.95;100209.72;5002185;28;46854;-74
2021/06/29 01:45:43;;;;;;;;;2.00;2.00;;;;;20.73;53.27;100203.56;5001814;28;45696;-75
2021/06/29 01:48:18;;;;;;;;;3.00;2.00;;;;;20.71;53.31;100203.69;5018409;28;45704;-75
2021/06/29 01:50:43;;;;;;;;;2.00;2.00;;;;;20.72;53.46;100209.84;5044697;28;45449;-76
2021/06/29 01:53:08;;;;;;;;;3.00;3.00;;;;;20.68;53.29;100205.72;5056589;28;45314;-75
2021/06/29 01:55:34;;;;;;;;;4.00;2.75;;;;;20.69;53.04;100202.09;5055904;28;45341;-75
2021/06/29 01:58:00;;;;;;;;;1.75;1.75;;;;;20.66;53.32;100200.53;5034716;28;45261;-75
2021/06/29 02:00:25;;;;;;;;;2.50;2.50;;;;;20.67;53.23;100201.38;5017216;28;45668;-75
2021/06/29 02:02:51;;;;;;;;;4.25;3.50;;;;;20.66;53.27;100197.88;5018432;28;45925;-75
2021/06/29 02:05:16;;;;;;;;;4.00;2.75;;;;;20.64;53.41;100196.28;5000898;28;45532;-75
2021/06/29 02:07:42;;;;;;;;;4.00;2.25;;;;;20.63;53.23;100194.59;5036643;28;45258;-75
2021/06/29 02:10:08;;;;;;;;;3.00;3.00;;;;;20.63;53.36;100198.09;5038188;28;45655;-75
2021/06/29 02:12:33;;;;;;;;;3.00;3.00;;;;;20.62;53.45;100193.75;5038228;28;45553;-75
2021/06/29 02:14:59;;;;;;;;;3.00;3.00;;;;;20.61;53.39;100193.88;5034144;28;45478;-75
2021/06/29 02:17:24;;;;;;;;;3.50;3.00;;;;;20.59;53.48;100187.78;5028654;28;50324;-75
2021/06/29 02:19:49;;;;;;;;;5.00;4.00;;;;;20.59;53.41;100195.75;5017397;28;50151;-75
2021/06/29 02:22:15;;;;;;;;;3.00;3.00;;;;;20.56;53.58;100188.88;5016766;28;66450;-75
2021/06/29 02:24:40;;;;;;;;;2.75;2.75;;;;;20.56;53.57;100195.97;5034318;28;45393;-75
2021/06/29 02:27:06;;;;;;;;;3.00;3.00;;;;;20.53;53.56;100194.41;5018237;28;45439;-75
2021/06/29 02:29:31;;;;;;;;;4.75;3.50;;;;;20.51;53.72;100191.00;5033959;28;45324;-75
2021/06/29 02:31:57;;;;;;;;;2.25;2.25;;;;;20.50;53.80;100183.16;5019149;28;46351;-75
2021/06/29 02:34:22;;;;;;;;;2.75;2.75;;;;;20.49;53.49;100195.59;5017454;28;45686;-75
2021/06/29 02:36:48;;;;;;;;;5.50;4.00;;;;;20.48;53.87;100190.38;5001098;28;45414;-76
2021/06/29 02:39:13;;;;;;;;;2.50;1.00;;;;;20.47;53.73;100194.84;5017702;28;45332;-76
2021/06/29 02:41:39;;;;;;;;;3.00;3.00;;;;;20.44;53.75;100190.63;5034676;28;63351;-75
2021/06/29 02:44:04;;;;;;;;;3.75;3.75;;;;;20.44;54.01;100195.91;5017892;28;47081;-75
2021/06/29 02:46:30;;;;;;;;;3.00;3.00;;;;;20.43;53.67;100193.38;5010294;28;45325;-75
2021/06/29 02:48:56;;;;;;;;;4.00;3.00;;;;;20.40;53.71;100194.44;5055746;28;45713;-76
2021/06/29 02:51:22;;;;;;;;;3.50;3.25;;;;;20.39;53.72;100191.88;5036746;28;46281;-75
2021/06/29 02:53:48;;;;;;;;;3.00;3.00;;;;;20.37;53.73;100191.97;5055440;28;45392;-75
2021/06/29 02:58:57;;;;;;;;;3.50;3.50;;;;;20.34;54.09;100183.38;5040317;28;45601;-76
2021/06/29 03:01:23;;;;;;;;;4.25;3.25;;;;;20.32;54.18;100178.19;5053200;28;47252;-74
2021/06/29 03:03:49;;;;;;;;;5.00;3.75;;;;;20.30;53.97;100176.59;5055187;28;50165;-75
2021/06/29 03:06:14;;;;;;;;;4.25;3.25;;;;;20.29;53.95;100175.75;5033034;28;45538;-74
2021/06/29 03:08:40;;;;;;;;;4.25;4.00;;;;;20.25;53.89;100163.69;5035260;28;45672;-74
2021/06/29 03:11:05;;;;;;;;;2.75;2.75;;;;;20.23;54.09;100162.94;5023608;28;68128;-74
2021/06/29 03:13:31;;;;;;;;;2.25;2.25;;;;;20.21;53.92;100159.56;5036482;28;58240;-74
2021/06/29 03:15:56;;;;;;;;;4.75;3.75;;;;;20.21;54.27;100156.91;4985760;28;52701;-75
2021/06/29 03:18:23;;;;;;;;;4.50;3.00;;;;;20.19;53.82;100155.31;5039218;28;45309;-75
2021/06/29 03:20:49;;;;;;;;;5.00;4.00;;;;;20.15;54.06;100152.88;5056245;28;46142;-75
2021/06/29 03:23:15;;;;;;;;;2.25;2.25;;;;;20.15;54.24;100152.00;5051050;28;45615;-75
2021/06/29 03:25:40;;;;;;;;;2.50;2.50;;;;;20.12;54.29;100152.25;5027102;28;45815;-75
2021/06/29 03:28:05;;;;;;;;;3.75;3.00;;;;;20.10;54.49;100149.69;5056488;28;45592;-75
2021/06/29 03:30:31;;;;;;;;;5.00;2.00;;;;;20.08;54.50;100145.47;5054559;28;54480;-75
2021/06/29 03:32:56;;;;;;;;;3.00;3.00;;;;;20.07;54.13;100138.47;5044076;28;45250;-75
2021/06/29 03:35:22;;;;;;;;;3.00;3.00;;;;;20.05;54.38;100145.69;5031536;28;45482;-75
2021/06/29 03:37:47;;;;;;;;;2.25;2.25;;;;;20.03;54.05;100147.59;5035435;28;45470;-75
2021/06/29 03:40:13;;;;;;;;;3.25;3.00;;;;;20.01;54.31;100146.88;5021453;28;45581;-75
2021/06/29 03:42:39;;;;;;;;;4.00;2.00;;;;;19.98;54.35;100152.38;5055012;28;45291;-74
2021/06/29 03:45:05;;;;;;;;;3.00;3.00;;;;;19.96;54.03;100149.00;5035848;28;45567;-75
2021/06/29 03:47:30;;;;;;;;;2.00;2.00;;;;;19.92;54.50;100151.00;5036142;28;45696;-75
2021/06/29 03:49:56;;;;;;;;;3.00;3.00;;;;;19.90;54.39;100144.09;5035785;28;49145;-75
2021/06/29 03:52:21;;;;;;;;;3.00;3.00;;;;;19.88;54.16;100143.38;5054000;28;45208;-74
2021/06/29 03:54:47;;;;;;;;;3.00;3.00;;;;;19.86;54.19;100140.84;5036185;28;45407;-76
2021/06/29 03:57:12;;;;;;;;;3.00;3.00;;;;;19.86;54.57;100147.94;5031920;28;45289;-75
2021/06/29 03:59:37;;;;;;;;;1.25;1.25;;;;;19.84;54.38;100148.06;5016193;28;46104;-75
2021/06/29 04:02:03;;;;;;;;;2.25;2.25;;;;;19.81;54.39;100135.88;5016335;28;45678;-75
2021/06/29 04:04:28;;;;;;;;;3.00;3.00;;;;;19.79;54.27;100145.72;5041845;28;45401;-75
2021/06/29 04:06:54;;;;;;;;;4.00;3.25;;;;;19.77;54.27;100142.34;5054835;28;45502;-75
2021/06/29 04:09:19;;;;;;;;;4.75;4.50;;;;;19.76;54.68;100143.28;5035870;28;46443;-75
2021/06/29 04:11:45;;;;;;;;;2.75;2.75;;;;;19.76;54.51;100153.06;5055357;28;59227;-75
2021/06/29 04:14:10;;;;;;;;;3.75;3.75;;;;;19.77;54.84;100162.69;5040054;28;45978;-74
2021/06/29 04:16:35;;;;;;;;;3.00;3.00;;;;;19.75;54.92;100154.00;5040916;28;45386;-75
2021/06/29 04:19:01;;;;;;;;;3.50;2.50;;;;;19.74;54.90;100155.81;5056304;28;67406;-75
2021/06/29 04:21:27;;;;;;;;;3.00;3.00;;;;;19.75;54.94;100156.66;5057085;28;45452;-75
2021/06/29 04:23:52;;;;;;;;;3.00;2.25;;;;;19.72;54.38;100154.19;5038675;28;45588;-75
2021/06/29 04:26:18;;;;;;;;;1.75;1.75;;;;;19.71;54.51;100142.75;5057255;28;48034;-75
2021/06/29 04:28:43;;;;;;;;;1.75;1.75;;;;;19.74;54.53;100147.00;5057464;28;46134;-75
2021/06/29 04:31:09;;;;;;;;;2.00;2.00;;;;;19.73;54.86;100143.47;5041556;28;46013;-75
2021/06/29 04:33:34;;;;;;;;;2.00;2.00;;;;;19.72;54.83;100144.44;5056439;28;56321;-76
2021/06/29 04:36:00;;;;;;;;;2.75;2.25;;;;;19.72;54.49;100136.50;5021960;28;45546;-75
2021/06/29 04:38:25;;;;;;;;;3.00;2.50;;;;;19.71;54.86;100134.78;5056481;28;47509;-75
2021/06/29 04:40:51;;;;;;;;;4.00;2.25;;;;;19.74;54.71;100139.91;5050491;28;55833;-75
2021/06/29 04:43:16;;;;;;;;;1.75;1.75;;;;;19.73;54.86;100142.63;5049366;28;55434;-76
2021/06/29 04:45:42;;;;;;;;;2.00;2.00;;;;;19.74;54.89;100133.75;5023112;28;45336;-77
2021/06/29 04:48:07;;;;;;;;;2.25;2.25;;;;;19.75;54.58;100133.66;5039601;28;45446;-75
2021/06/29 04:50:33;;;;;;;;;3.00;3.00;;;;;19.73;54.86;100122.28;5057504;28;45704;-76
2021/06/29 04:52:58;;;;;;;;;3.25;3.25;;;;;19.74;54.92;100131.97;5056856;28;58639;-76
2021/06/29 04:55:24;;;;;;;;;3.00;3.00;;;;;19.76;55.06;100132.69;5057151;28;45324;-78
2021/06/29 04:57:49;;;;;;;;;5.75;4.00;;;;;19.74;55.54;100131.13;5046183;28;45598;-79
2021/06/29 05:00:17;;;;;;;;;7.00;5.00;;;;;19.55;55.62;100130.69;5045419;28;45463;-75
2021/06/29 05:02:43;;;;;;;;;5.00;4.25;;;;;19.34;56.04;100130.34;5054188;28;45445;-75
2021/06/29 05:05:09;;;;;;;;;2.75;2.75;;;;;19.15;56.61;100128.06;5036463;28;46024;-74
2021/06/29 05:07:41;;;;;;;;;6.00;5.00;;;;;19.01;56.94;100144.03;5036733;28;46529;-74
2021/06/29 05:10:08;;;;;;;;;4.50;4.50;;;;;18.91;57.25;100151.75;5037628;28;45672;-75
2021/06/29 05:12:34;;;;;;;;;3.50;3.50;;;;;18.84;57.58;100155.72;5036886;28;45446;-73
2021/06/29 05:14:59;;;;;;;;;5.50;3.25;;;;;18.76;57.79;100152.75;5055760;28;45466;-74
2021/06/29 05:17:25;;;;;;;;;3.25;3.25;;;;;18.66;58.06;100154.31;5054731;28;46380;-74
2021/06/29 05:19:51;;;;;;;;;4.00;4.00;;;;;18.61;58.50;100162.47;5029337;28;45601;-75
2021/06/29 05:22:17;;;;;;;;;2.25;2.25;;;;;18.56;58.20;100165.44;5024728;28;45573;-75
2021/06/29 05:24:42;;;;;;;;;3.00;3.00;;;;;18.53;58.38;100170.06;5028222;28;45702;-74
2021/06/29 05:27:08;;;;;;;;;4.50;4.00;;;;;18.53;58.35;100170.06;5018417;28;62706;-75
2021/06/29 05:29:33;;;;;;;;;3.25;3.25;;;;;18.53;58.93;100168.28;5052330;28;45420;-75
2021/06/29 05:31:59;;;;;;;;;4.50;3.75;;;;;18.50;58.79;100173.75;5048040;28;45681;-75
2021/06/29 05:34:24;;;;;;;;;4.75;4.75;;;;;18.47;58.92;100179.25;5035043;28;45667;-75
2021/06/29 05:36:50;;;;;;;;;3.25;2.75;;;;;18.43;59.08;100177.72;5034214;28;45417;-75
2021/06/29 05:39:17;;;;;;;;;5.00;4.00;;;;;18.42;59.26;100177.81;5035079;28;45680;-76
2021/06/29 05:41:42;;;;;;;;;4.50;4.50;;;;;18.40;59.22;100183.22;5052620;28;45513;-77
2021/06/29 05:44:08;;;;;;;;;7.00;7.00;;;;;18.42;59.74;100185.75;5054635;28;45485;-76
2021/06/29 05:46:33;;;;;;;;;6.50;5.00;;;;;18.35;59.53;100187.94;5054283;28;46372;-74
2021/06/29 05:48:59;;;;;;;;;5.50;4.25;;;;;18.32;59.85;100190.78;5037061;28;45906;-75
2021/06/29 05:51:24;;;;;;;;;4.50;4.50;;;;;18.29;60.22;100183.06;5054027;28;45475;-76
2021/06/29 05:53:50;;;;;;;;;6.00;5.00;;;;;18.30;59.99;100188.25;5037810;28;45601;-76
2021/06/29 05:56:15;;;;;;;;;6.00;6.00;;;;;18.29;60.20;100189.19;5032172;28;45746;-74
2021/06/29 05:58:41;;;;;;;;;4.75;4.00;;;;;18.29;60.28;100185.69;5032146;28;45474;-76
2021/06/29 06:01:07;;;;;;;;;7.00;5.00;;;;;18.26;60.13;100188.53;5090386;27;45804;-75
2021/06/29 06:03:32;;;;;;;;;5.75;5.75;;;;;18.25;60.30;100195.63;5057100;28;45359;-75
2021/06/29 06:05:58;;;;;;;;;6.00;5.25;;;;;18.27;60.56;100204.31;5049819;28;45786;-77
2021/06/29 06:08:24;;;;;;;;;6.75;5.25;;;;;18.29;60.43;100186.56;5004351;28;45438;-75
2021/06/29 06:10:50;;;;;;;;;4.00;4.00;;;;;18.35;60.45;100198.53;5037559;28;45490;-75
2021/06/29 06:13:15;;;;;;;;;7.50;7.50;;;;;18.36;60.42;100197.56;5022001;28;45694;-76
2021/06/29 06:15:41;;;;;;;;;8.00;6.00;;;;;18.37;60.46;100196.63;5047307;28;46213;-76
2021/06/29 06:18:06;;;;;;;;;4.75;4.75;;;;;18.37;60.51;100198.44;5029430;28;45529;-76
2021/06/29 06:20:33;;;;;;;;;4.75;4.75;;;;;18.37;60.53;100203.72;5069283;28;45553;-74
2021/06/29 06:22:59;;;;;;;;;7.00;7.00;;;;;18.37;60.77;100207.19;5059438;28;45921;-75
2021/06/29 06:25:25;;;;;;;;;8.00;6.00;;;;;18.38;61.13;100203.63;5040346;28;46241;-74
2021/06/29 06:27:50;;;;;;;;;6.25;5.50;;;;;18.42;61.10;100209.56;5037892;28;45559;-74
2021/06/29 06:30:18;;;;;;;;;10.00;7.25;;;;;18.43;61.37;100209.44;5037503;28;45485;-75
2021/06/29 06:32:43;;;;;;;;;7.50;6.75;;;;;18.46;61.58;100204.00;5025538;28;45594;-76
2021/06/29 06:35:09;;;;;;;;;7.00;6.00;;;;;18.43;61.41;100204.16;5033385;28;45363;-75
2021/06/29 06:37:34;;;;;;;;;9.50;7.50;;;;;18.40;61.69;100204.38;5015104;28;45443;-75
2021/06/29 06:40:00;;;;;;;;;7.25;6.00;;;;;18.36;61.69;100204.66;5053661;28;46595;-75
2021/06/29 06:42:25;;;;;;;;;9.00;7.75;;;;;18.40;62.04;100207.00;5032991;28;45675;-73
2021/06/29 06:44:51;;;;;;;;;16.50;12.25;;;;;18.48;62.17;100203.91;5017034;28;59473;-72
2021/06/29 06:47:16;;;;;;;;;8.50;7.25;;;;;18.58;61.89;100207.63;5034908;28;45438;-73
2021/06/29 06:49:41;;;;;;;;;9.75;7.00;;;;;18.62;61.62;100203.84;5016511;28;45946;-72
2021/06/29 06:52:07;;;;;;;;;6.75;6.00;;;;;18.69;61.55;100204.34;5029980;28;45601;-72
2021/06/29 06:54:33;;;;;;;;;9.50;8.50;;;;;18.76;62.13;100208.28;5053804;28;46033;-72
2021/06/29 06:56:58;;;;;;;;;8.25;8.25;;;;;18.77;61.36;100202.06;5036670;28;45938;-73
2021/06/29 06:59:24;;;;;;;;;7.00;6.50;;;;;18.79;61.38;100206.28;5035506;28;45524;-72
2021/06/29 07:01:49;;;;;;;;;5.75;5.50;;;;;18.80;61.84;100212.44;5036268;28;45550;-71
2021/06/29 07:04:16;;;;;;;;;5.50;5.25;;;;;18.79;61.82;100205.44;5020525;28;45769;-75
2021/06/29 07:06:41;;;;;;;;;9.25;8.25;;;;;18.80;61.58;100209.78;5035785;28;45908;-73
2021/06/29 07:09:07;;;;;;;;;9.25;8.25;;;;;18.80;61.51;100213.28;5055028;28;54420;-73
2021/06/29 07:11:32;;;;;;;;;7.75;7.25;;;;;18.83;61.86;100212.22;5053576;28;45669;-72
2021/06/29 07:13:58;;;;;;;;;9.25;8.25;;;;;18.80;62.27;100215.94;5053905;28;45539;-72
2021/06/29 07:16:23;;;;;;;;;7.00;7.00;;;;;18.84;62.06;100220.06;5018660;28;55988;-72
2021/06/29 07:18:52;;;;;;;;;8.50;8.50;;;;;18.87;61.84;100219.06;5033267;28;45439;-74
2021/06/29 07:21:17;;;;;;;;;4.75;4.75;;;;;18.88;62.17;100218.09;5038037;28;45602;-72
2021/06/29 07:23:43;;;;;;;;;6.50;6.00;;;;;18.92;62.57;100223.09;5033264;28;46043;-73
2021/06/29 07:26:08;;;;;;;;;7.50;5.75;;;;;18.92;61.99;100220.44;5018126;28;45563;-73
2021/06/29 07:28:33;;;;;;;;;7.00;5.25;;;;;18.95;61.73;100219.38;5033109;28;46009;-72
2021/06/29 07:30:59;;;;;;;;;10.25;10.25;;;;;18.91;61.77;100224.03;5048925;28;45481;-75
2021/06/29 07:33:25;;;;;;;;;8.50;7.00;;;;;18.87;62.42;100221.69;5017365;28;47807;-76
2021/06/29 07:35:50;;;;;;;;;12.75;10.00;;;;;18.88;62.49;100221.59;5016212;28;45762;-78
2021/06/29 07:38:16;;;;;;;;;9.25;9.00;;;;;18.86;62.40;100222.63;5052131;28;45577;-75
2021/06/29 07:40:41;;;;;;;;;7.00;7.00;;;;;18.86;62.01;100214.69;5029357;28;45542;-76
2021/06/29 07:43:07;;;;;;;;;7.25;7.00;;;;;18.87;62.66;100219.06;5034737;28;48381;-77
2021/06/29 07:45:32;;;;;;;;;7.75;7.75;;;;;18.90;62.55;100221.50;5033422;28;53513;-74
2021/06/29 07:48:01;;;;;;;;;9.75;8.50;;;;;18.95;62.64;100219.38;5037869;28;45427;-73
2021/06/29 07:50:27;;;;;;;;;7.00;7.00;;;;;19.05;62.08;100220.47;5038998;28;45664;-73
2021/06/29 07:52:53;;;;;;;;;8.50;8.00;;;;;19.16;61.57;100212.69;5058042;28;45830;-73
2021/06/29 07:55:18;;;;;;;;;6.50;6.50;;;;;19.31;61.72;100217.94;5057833;28;45762;-71
2021/06/29 07:57:43;;;;;;;;;11.50;9.00;;;;;19.43;62.08;100220.59;5057718;28;45669;-71
2021/06/29 08:00:10;;;;;;;;;12.25;8.25;;;;;19.55;61.18;100220.75;5057864;28;51928;-72
2021/06/29 08:02:35;;;;;;;;;6.25;6.25;;;;;19.64;60.85;100217.47;5022423;28;47021;-75
2021/06/29 08:05:00;;;;;;;;;5.50;5.50;;;;;19.73;60.71;100220.31;5053291;28;48859;-72
2021/06/29 08:07:27;;;;;;;;;11.25;10.25;;;;;19.84;60.30;100215.16;5037095;28;45455;-74
2021/06/29 08:09:53;;;;;;;;;4.00;4.00;;;;;19.92;59.56;100222.56;5046489;28;45475;-71
2021/06/29 08:12:19;;;;;;;;;8.00;6.50;;;;;19.97;58.51;100223.13;5038782;28;45473;-72
2021/06/29 08:14:44;;;;;;;;;3.25;3.25;;;;;20.02;58.47;100222.78;5009739;28;45548;-74
2021/06/29 08:17:09;;;;;;;;;6.25;6.00;;;;;19.99;58.40;100223.84;5034061;28;45463;-71
2021/06/29 08:19:35;;;;;;;;;6.25;6.25;;;;;19.97;58.42;100227.56;5038115;28;45541;-71
2021/06/29 08:22:00;;;;;;;;;7.50;6.00;;;;;19.96;58.43;100220.56;5013872;28;64561;-72
2021/06/29 08:24:26;;;;;;;;;4.00;3.25;;;;;19.91;58.56;100223.50;5011079;28;45340;-72
2021/06/29 08:26:52;;;;;;;;;6.25;6.00;;;;;19.87;58.63;100232.63;5027105;28;45514;-72
2021/06/29 08:29:17;;;;;;;;;3.00;3.00;;;;;19.82;58.45;100229.47;5033342;28;45519;-72
2021/06/29 08:31:42;;;;;;;;;4.00;4.00;;;;;19.77;58.01;100231.59;5039090;28;47311;-72
2021/06/29 08:34:08;;;;;;;;;1.25;1.25;;;;;19.70;56.49;100236.44;5046403;28;59942;-73
2021/06/29 08:36:40;;;;;;;;;3.25;3.25;;;;;19.63;57.49;100232.50;5033227;28;45833;-73
2021/06/29 08:39:06;;;;;;;;;6.00;4.25;;;;;19.69;57.82;100234.75;5036491;28;45540;-73
2021/06/29 08:41:31;;;;;;;;;5.00;5.00;;;;;19.77;58.03;100228.94;5027534;28;46570;-72
2021/06/29 08:43:57;;;;;;;;;5.00;4.50;;;;;19.76;57.63;100222.78;5020838;28;45573;-71
2021/06/29 08:46:22;;;;;;;;;10.75;7.75;;;;;19.78;57.70;100231.47;5038712;28;55410;-71
2021/06/29 08:48:48;;;;;;;;;4.00;3.25;;;;;19.78;57.14;100234.13;5050426;28;45489;-72
2021/06/29 08:51:13;;;;;;;;;2.25;2.25;;;;;19.85;57.17;100231.91;5039168;28;63172;-73
2021/06/29 08:53:39;;;;;;;;;2.00;2.00;;;;;19.93;56.41;100231.34;5052575;28;45434;-73
2021/06/29 08:56:04;;;;;;;;;3.00;3.00;;;;;19.95;55.86;100230.28;5055521;28;45359;-75
2021/06/29 08:58:33;;;;;;;;;2.50;2.50;;;;;19.98;56.36;100235.41;5047403;28;45447;-73
2021/06/29 09:00:59;;;;;;;;;2.50;2.50;;;;;20.00;55.92;100230.84;5037392;28;46173;-72
2021/06/29 09:03:24;;;;;;;;;2.00;2.00;;;;;19.96;55.25;100226.72;5036098;28;45495;-73
2021/06/29 09:05:51;;;;;;;;;4.00;4.00;;;;;20.00;55.74;100230.00;5027344;28;45436;-74
2021/06/29 09:08:18;;;;;;;;;2.25;2.25;;;;;20.05;55.29;100231.38;5011005;28;45626;-73
2021/06/29 09:11:05;;;;;;;;;2.00;2.00;;;;;20.10;55.86;100226.59;5031605;28;46461;-71
2021/06/29 09:13:31;;;;;;;;;2.00;2.00;;;;;20.19;56.00;100229.56;5019949;28;45532;-73
2021/06/29 09:15:57;;;;;;;;;3.00;3.00;;;;;20.29;55.14;100228.78;5051465;28;45402;-74
2021/06/29 09:18:24;;;;;;;;;2.50;2.50;;;;;20.36;54.49;100235.34;5038007;28;45395;-73
2021/06/29 09:20:50;;;;;;;;;3.75;3.75;;;;;20.35;54.24;100228.34;5052189;28;46447;-73
2021/06/29 09:23:21;;;;;;;;;2.00;2.00;;;;;20.31;54.22;100226.03;5051687;28;45483;-72
2021/06/29 09:25:51;;;;;;;;;2.00;2.00;;;;;20.34;53.88;100225.81;5039062;28;45508;-73
2021/06/29 09:28:19;;;;;;;;;2.75;2.75;;;;;20.35;52.67;100224.84;5050962;28;45855;-73
2021/06/29 09:30:54;;;;;;;;;15.75;12.25;;;;;20.28;53.37;100227.09;5034496;28;45569;-72
2021/06/29 09:33:22;;;;;;;;;3.00;2.00;;;;;20.32;53.15;100227.72;5055877;28;45518;-72
2021/06/29 09:35:52;;;;;;;;;2.00;1.75;;;;;20.35;53.48;100220.41;5017396;28;45570;-73
2021/06/29 09:38:22;;;;;;;;;7.50;4.00;;;;;20.37;53.26;100226.44;5024924;28;45706;-75
2021/06/29 09:41:04;;;;;;;;;3.00;3.00;;;;;20.37;53.53;100222.94;5030669;28;45347;-74
2021/06/29 09:43:31;;;;;;;;;4.00;3.25;;;;;20.42;53.36;100224.38;5024172;28;45533;-72
2021/06/29 09:45:59;;;;;;;;;3.00;3.00;;;;;20.49;53.78;100218.59;5017279;28;45479;-73
2021/06/29 09:48:39;;;;;;;;;3.00;2.00;;;;;20.64;53.98;100214.88;5050412;28;45434;-73
2021/06/29 09:51:12;;;;;;;;;3.25;2.25;;;;;20.82;53.53;100218.84;5048614;28;45742;-74
2021/06/29 09:53:40;;;;;;;;;4.75;3.25;;;;;20.85;52.15;100220.41;5035025;28;45554;-72
2021/06/29 09:56:15;;;;;;;;;3.00;2.00;;;;;20.87;51.98;100218.50;5023328;28;45516;-72
2021/06/29 09:58:42;;;;;;;;;4.00;4.00;;;;;21.01;52.36;100215.66;5012137;28;45495;-72
2021/06/29 10:01:08;;;;;;;;;5.50;5.00;;;;;21.08;52.48;100219.56;5030242;28;46171;-73
2021/06/29 10:03:37;;;;;;;;;2.75;2.75;;;;;21.18;51.86;100215.25;5026936;28;45991;-73
2021/06/29 10:06:17;;;;;;;;;3.00;3.00;;;;;21.38;51.59;100213.78;5039814;28;45556;-72
2021/06/29 10:08:44;;;;;;;;;4.50;4.50;;;;;21.58;51.32;100220.25;5044574;28;45573;-73
2021/06/29 10:11:13;;;;;;;;;3.00;3.00;;;;;21.74;51.37;100209.31;5016391;28;45600;-73
2021/06/29 10:14:00;;;;;;;;;1.50;1.50;;;;;21.96;49.31;100209.34;5044947;28;45908;-74
2021/06/29 10:16:29;;;;;;;;;4.00;2.75;;;;;22.10;49.47;100216.25;5044591;28;45482;-73
2021/06/29 10:21:25;;;;;;;;;2.00;0.00;;;;;22.23;45.38;100215.16;5032445;28;46011;-74
2021/06/29 10:23:58;;;;;;;;;3.00;1.25;;;;;22.23;45.24;100209.00;5047557;28;45804;-73
2021/06/29 10:26:25;;;;;;;;;3.00;2.00;;;;;22.46;46.58;100212.50;5031493;28;45466;-73
2021/06/29 10:28:51;;;;;;;;;4.00;4.00;;;;;22.97;45.99;100203.91;5033239;28;45655;-74
2021/06/29 10:31:19;;;;;;;;;0.25;0.25;;;;;23.57;44.92;100197.97;5026196;28;47151;-72
2021/06/29 10:33:45;;;;;;;;;1.00;1.00;;;;;24.12;44.20;100209.25;5029700;28;45523;-74
2021/06/29 10:36:11;;;;;;;;;5.50;5.50;;;;;24.53;41.10;100197.63;5018489;28;45538;-74
2021/06/29 10:38:36;;;;;;;;;2.25;2.25;;;;;24.72;42.93;100198.63;5011993;28;45644;-72
2021/06/29 10:41:02;;;;;;;;;1.00;1.00;;;;;24.79;41.48;100197.97;5032660;28;57886;-72
2021/06/29 10:43:28;;;;;;;;;1.25;1.25;;;;;24.76;41.65;100186.72;5007033;28;45770;-72
2021/06/29 10:45:53;;;;;;;;;2.00;2.00;;;;;24.69;41.99;100189.91;5033824;28;45664;-72
2021/06/29 10:48:26;;;;;;;;;2.50;1.50;;;;;24.61;41.07;100186.25;5000589;28;45388;-73
2021/06/29 10:50:53;;;;;;;;;4.25;4.00;;;;;24.44;42.00;100184.25;5043154;28;45571;-73
2021/06/29 10:53:43;;;;;;;;;1.50;1.50;;;;;24.03;41.27;100189.53;5034781;28;45901;-75
2021/06/29 10:56:16;;;;;;;;;1.00;1.00;;;;;23.66;40.81;100199.88;5048535;28;45362;-74
2021/06/29 10:58:46;;;;;;;;;1.50;1.50;;;;;23.30;41.69;100182.47;5039273;28;45544;-72
2021/06/29 11:01:21;;;;;;;;;4.75;4.75;;;;;23.13;41.83;100191.03;5021967;28;45475;-72
2021/06/29 11:03:46;;;;;;;;;2.00;2.00;;;;;22.94;42.88;100190.88;5032430;28;45501;-73
2021/06/29 11:06:12;;;;;;;;;1.50;1.50;;;;;22.72;42.93;100191.75;5051673;28;45665;-72
2021/06/29 11:08:47;;;;;;;;;2.00;2.00;;;;;22.52;43.95;100193.34;5055005;28;45454;-71
2021/06/29 11:11:12;;;;;;;;;1.00;1.00;;;;;22.32;43.94;100200.28;5034554;28;46618;-73
2021/06/29 11:13:45;;;;;;;;;1.50;1.50;;;;;22.27;43.91;100192.66;5037304;28;45541;-73
2021/06/29 11:16:11;;;;;;;;;5.00;4.00;;;;;22.38;44.87;100190.97;5037556;28;45553;-73
2021/06/29 11:18:36;;;;;;;;;4.25;4.25;;;;;22.40;43.45;100197.03;5003307;28;45468;-73
2021/06/29 11:21:05;;;;;;;;;14.50;11.50;;;;;22.41;43.74;100196.91;5020672;28;47942;-73
2021/06/29 11:23:34;;;;;;;;;3.00;3.00;;;;;22.45;43.89;100194.84;5033637;28;45472;-73
2021/06/29 11:26:12;;;;;;;;;2.00;2.00;;;;;22.48;43.77;100199.91;5023956;28;45694;-75